Time;durP1;ratioP1;P1;durP2;ratioP2;P2;SDS_P1;SDS_P2;PMS_P1;PMS_P2;Temp;Humidity;BMP_temperature;BMP_pressure;BME280_temperature;BME280_humidity;BME280_pressure;Samples;Min_cycle;Max_cycle;Signal;HPM_P1;HPM_P2
2023/10/23 00:02:01;;;;;;;;;;;19.80;62.00;;;;;;6321983;28;19955;-65
2023/10/23 00:05:02;;;;;;;;;;;19.70;61.90;;;;;;6322365;28;19923;-65
2023/10/23 00:08:03;;;;;;;;;;;19.70;61.90;;;;;;6322287;28;19912;-65
2023/10/23 00:11:03;;;;;;;;;;;19.70;61.90;;;;;;6321911;28;19998;-65
2023/10/23 00:14:04;;;;;;;;;;;19.70;61.80;;;;;;6321800;28;19978;-65
2023/10/23 00:17:04;;;;;;;;;;;19.80;62.00;;;;;;6322006;28;19908;-66
2023/10/23 00:20:05;;;;;;;;;;;19.70;62.00;;;;;;6321863;28;20379;-65
2023/10/23 00:23:06;;;;;;;;;;;19.70;61.90;;;;;;6321386;28;19908;-65
2023/10/23 00:26:06;;;;;;;;;;;19.70;61.80;;;;;;6321963;28;20218;-65
2023/10/23 00:29:07;;;;;;;;;;;19.70;61.90;;;;;;6319890;28;19915;-66
2023/10/23 00:32:07;;;;;;;;;;;19.70;61.80;;;;;;6321264;28;19954;-65
2023/10/23 00:35:08;;;;;;;;;;;19.70;61.90;;;;;;6319810;28;19952;-66
2023/10/23 00:38:09;;;;;;;;;;;19.70;61.90;;;;;;6320044;28;19932;-65
2023/10/23 00:41:09;;;;;;;;;;;19.70;61.90;;;;;;6319451;28;20107;-64
2023/10/23 00:44:10;;;;;;;;;;;19.70;62.40;;;;;;6321245;28;20047;-65
2023/10/23 00:47:11;;;;;;;;;;;19.70;61.90;;;;;;6319600;28;19908;-65
2023/10/23 00:50:12;;;;;;;;;;;19.70;61.90;;;;;;6320933;28;19908;-65
2023/10/23 00:53:12;;;;;;;;;;;19.70;62.00;;;;;;6320664;28;19974;-66
2023/10/23 00:56:13;;;;;;;;;;;19.70;61.80;;;;;;6320952;28;20429;-66
2023/10/23 00:59:14;;;;;;;;;;;19.70;61.90;;;;;;6319431;28;19923;-65
2023/10/23 01:02:14;;;;;;;;;;;19.70;61.80;;;;;;6320563;28;19912;-65
2023/10/23 01:05:15;;;;;;;;;;;19.70;61.90;;;;;;6320318;28;19929;-65
2023/10/23 01:08:16;;;;;;;;;;;19.70;61.90;;;;;;6319999;28;19915;-65
2023/10/23 01:11:17;;;;;;;;;;;19.70;61.90;;;;;;6320323;28;19908;-65
2023/10/23 01:14:17;;;;;;;;;;;19.70;61.90;;;;;;6320395;28;19952;-66
2023/10/23 01:17:18;;;;;;;;;;;19.70;61.90;;;;;;6320845;28;19908;-66
2023/10/23 01:20:19;;;;;;;;;;;19.70;61.90;;;;;;6318792;28;20302;-65
2023/10/23 01:23:23;;;;;;;;;;;19.70;61.90;;;;;;6320056;28;20425;-65
2023/10/23 01:26:24;;;;;;;;;;;19.70;61.90;;;;;;6320013;28;19935;-65
2023/10/23 01:29:24;;;;;;;;;;;19.70;61.80;;;;;;6320284;28;19951;-65
2023/10/23 01:32:25;;;;;;;;;;;19.70;62.00;;;;;;6320269;28;19998;-65
2023/10/23 01:35:25;;;;;;;;;;;19.70;61.90;;;;;;6319451;28;19931;-66
2023/10/23 01:38:26;;;;;;;;;;;19.80;62.00;;;;;;6320049;28;19908;-66
2023/10/23 01:41:26;;;;;;;;;;;19.70;61.90;;;;;;6319290;28;20044;-65
2023/10/23 01:44:27;;;;;;;;;;;19.70;61.80;;;;;;6319792;28;19908;-65
2023/10/23 01:47:27;;;;;;;;;;;19.70;61.90;;;;;;6319358;28;20410;-65
2023/10/23 01:50:28;;;;;;;;;;;19.70;61.80;;;;;;6319521;28;19908;-66
2023/10/23 01:53:28;;;;;;;;;;;19.70;61.80;;;;;;6319511;28;20394;-66
2023/10/23 01:56:29;;;;;;;;;;;19.70;61.80;;;;;;6319535;28;19912;-66
2023/10/23 01:59:29;;;;;;;;;;;19.70;61.90;;;;;;6319107;28;19948;-65
2023/10/23 02:02:30;;;;;;;;;;;19.70;61.80;;;;;;6319201;28;19908;-65
2023/10/23 02:05:31;;;;;;;;;;;19.70;61.90;;;;;;6319029;28;19909;-65
2023/10/23 02:08:31;;;;;;;;;;;19.70;61.80;;;;;;6318957;28;19916;-65
2023/10/23 02:11:32;;;;;;;;;;;19.70;61.90;;;;;;6318918;28;19943;-66
2023/10/23 02:14:32;;;;;;;;;;;19.70;61.60;;;;;;6319071;28;19908;-66
2023/10/23 02:17:33;;;;;;;;;;;19.70;61.70;;;;;;6318748;28;20302;-65
2023/10/23 02:20:33;;;;;;;;;;;19.70;61.80;;;;;;6317710;28;19923;-65
2023/10/23 02:23:34;;;;;;;;;;;19.70;61.90;;;;;;6318654;28;20008;-65
2023/10/23 02:26:34;;;;;;;;;;;19.70;61.80;;;;;;6318547;28;20267;-65
2023/10/23 02:29:35;;;;;;;;;;;19.70;61.80;;;;;;6317031;28;19931;-65
2023/10/23 02:32:35;;;;;;;;;;;19.70;61.80;;;;;;6318605;28;19908;-65
2023/10/23 02:35:37;;;;;;;;;;;19.70;61.90;;;;;;6318632;28;19974;-65
2023/10/23 02:38:37;;;;;;;;;;;19.70;61.90;;;;;;6318390;28;20445;-65
2023/10/23 02:41:38;;;;;;;;;;;19.70;61.90;;;;;;6318029;28;19943;-65
2023/10/23 02:44:38;;;;;;;;;;;19.70;61.80;;;;;;6293204;28;19909;-65
2023/10/23 02:47:39;;;;;;;;;;;19.70;61.80;;;;;;6307651;28;19938;-65
2023/10/23 02:50:39;;;;;;;;;;;19.70;61.90;;;;;;6317809;28;19907;-65
2023/10/23 02:53:40;;;;;;;;;;;19.70;61.90;;;;;;6318215;28;20358;-65
2023/10/23 02:56:40;;;;;;;;;;;19.70;61.90;;;;;;6317960;28;19908;-66
2023/10/23 02:59:46;;;;;;;;;;;19.70;61.90;;;;;;6317876;28;19908;-65
2023/10/23 03:02:47;;;;;;;;;;;19.70;61.90;;;;;;6317949;28;19916;-65
2023/10/23 03:05:47;;;;;;;;;;;19.70;61.90;;;;;;6317844;28;20390;-65
2023/10/23 03:08:48;;;;;;;;;;;19.70;61.90;;;;;;6317334;28;20398;-65
2023/10/23 03:11:49;;;;;;;;;;;19.70;61.90;;;;;;6317866;28;19915;-65
2023/10/23 03:14:49;;;;;;;;;;;19.70;62.00;;;;;;6317538;28;19935;-65
2023/10/23 03:17:50;;;;;;;;;;;19.70;62.70;;;;;;6317303;28;19915;-65
2023/10/23 03:20:51;;;;;;;;;;;19.70;61.90;;;;;;6317567;28;19998;-65
2023/10/23 03:23:51;;;;;;;;;;;19.70;61.90;;;;;;6317433;28;19915;-65
2023/10/23 03:26:52;;;;;;;;;;;19.70;61.80;;;;;;6315994;28;19915;-65
2023/10/23 03:29:52;;;;;;;;;;;19.70;61.90;;;;;;6317411;28;19911;-65
2023/10/23 03:32:53;;;;;;;;;;;19.70;61.90;;;;;;6316610;28;19995;-65
2023/10/23 03:35:53;;;;;;;;;;;19.70;62.00;;;;;;6317482;28;19912;-65
2023/10/23 03:38:54;;;;;;;;;;;19.70;61.90;;;;;;6316704;28;20340;-65
2023/10/23 03:41:57;;;;;;;;;;;19.70;61.90;;;;;;6315571;28;20490;-65
2023/10/23 03:44:57;;;;;;;;;;;19.70;61.90;;;;;;6316982;28;20282;-65
2023/10/23 03:47:58;;;;;;;;;;;19.70;61.90;;;;;;6317185;28;19951;-65
2023/10/23 03:50:59;;;;;;;;;;;19.70;62.00;;;;;;6316811;28;19908;-65
2023/10/23 03:54:00;;;;;;;;;;;19.70;62.00;;;;;;6317095;28;19922;-65
2023/10/23 03:57:00;;;;;;;;;;;19.70;62.00;;;;;;6316762;28;19912;-66
2023/10/23 04:03:38;;;;;;;;;;;19.70;62.00;;;;;;6307642;28;19908;-66
2023/10/23 04:06:39;;;;;;;;;;;19.70;62.20;;;;;;6315820;28;20401;-66
2023/10/23 04:09:40;;;;;;;;;;;19.70;62.00;;;;;;6315190;28;19995;-66
2023/10/23 04:12:40;;;;;;;;;;;19.70;62.00;;;;;;6315667;28;19958;-66
2023/10/23 04:15:50;;;;;;;;;;;19.70;61.90;;;;;;6316050;28;19919;-65
2023/10/23 04:18:51;;;;;;;;;;;19.70;61.90;;;;;;6309111;28;19908;-66
2023/10/23 04:21:51;;;;;;;;;;;19.70;61.90;;;;;;6315435;28;19912;-66
2023/10/23 04:24:54;;;;;;;;;;;19.70;61.80;;;;;;6315663;28;19909;-66
2023/10/23 04:27:55;;;;;;;;;;;19.70;61.80;;;;;;6305603;28;19918;-66
2023/10/23 04:30:55;;;;;;;;;;;19.70;61.80;;;;;;6313403;28;19944;-66
2023/10/23 04:33:56;;;;;;;;;;;19.70;61.50;;;;;;6314115;28;19916;-66
2023/10/23 04:36:56;;;;;;;;;;;19.70;61.70;;;;;;6313727;28;19912;-66
2023/10/23 04:39:57;;;;;;;;;;;19.70;61.70;;;;;;6313986;28;20018;-66
2023/10/23 04:42:57;;;;;;;;;;;19.70;61.80;;;;;;6314545;28;19916;-66
2023/10/23 04:45:58;;;;;;;;;;;19.70;61.60;;;;;;6317988;28;19974;-66
2023/10/23 04:48:58;;;;;;;;;;;19.70;61.70;;;;;;6318490;28;19971;-67
2023/10/23 04:51:59;;;;;;;;;;;19.70;61.60;;;;;;6319146;28;19916;-66
2023/10/23 04:54:59;;;;;;;;;;;19.80;61.90;;;;;;6318601;28;19915;-66
2023/10/23 04:58:01;;;;;;;;;;;19.90;61.60;;;;;;6317953;28;19908;-65
2023/10/23 05:01:01;;;;;;;;;;;20.00;61.60;;;;;;6315817;28;19931;-66
2023/10/23 05:04:02;;;;;;;;;;;20.00;61.40;;;;;;6316051;28;19955;-65
2023/10/23 05:07:03;;;;;;;;;;;20.00;61.40;;;;;;6318409;28;19995;-66
2023/10/23 05:10:05;;;;;;;;;;;20.00;61.30;;;;;;6317427;28;19916;-66
2023/10/23 05:13:06;;;;;;;;;;;20.00;61.30;;;;;;6317190;28;19915;-67
2023/10/23 05:16:06;;;;;;;;;;;20.00;61.50;;;;;;6317858;28;19908;-66
2023/10/23 05:19:10;;;;;;;;;;;20.00;61.50;;;;;;6318584;28;19937;-67
2023/10/23 05:22:10;;;;;;;;;;;20.00;61.50;;;;;;6315980;28;19939;-66
2023/10/23 05:25:11;;;;;;;;;;;20.00;61.60;;;;;;6316774;28;19916;-67
2023/10/23 05:28:11;;;;;;;;;;;20.00;61.30;;;;;;6316740;28;20007;-68
2023/10/23 05:31:12;;;;;;;;;;;20.00;61.50;;;;;;6318214;28;20317;-67
2023/10/23 05:34:12;;;;;;;;;;;19.90;61.80;;;;;;6311372;28;20042;-67
2023/10/23 05:37:14;;;;;;;;;;;19.90;62.00;;;;;;6310570;28;19946;-67
2023/10/23 05:40:14;;;;;;;;;;;19.90;61.70;;;;;;6316303;28;19928;-67
2023/10/23 05:43:17;;;;;;;;;;;19.90;61.90;;;;;;6321152;28;20466;-67
2023/10/23 05:46:20;;;;;;;;;;;19.90;62.20;;;;;;6317364;28;20223;-67
2023/10/23 05:49:21;;;;;;;;;;;19.90;62.00;;;;;;6314079;28;19915;-67
2023/10/23 05:52:22;;;;;;;;;;;20.00;62.20;;;;;;6317589;28;20370;-67
2023/10/23 05:55:23;;;;;;;;;;;20.00;62.10;;;;;;6317213;28;20368;-65
2023/10/23 05:58:24;;;;;;;;;;;20.10;62.00;;;;;;6314661;28;19934;-66
2023/10/23 06:01:24;;;;;;;;;;;20.10;62.00;;;;;;6307726;28;19916;-66
2023/10/23 06:04:25;;;;;;;;;;;20.20;62.00;;;;;;6317608;28;20010;-66
2023/10/23 06:07:25;;;;;;;;;;;20.20;62.70;;;;;;6318856;28;19908;-66
2023/10/23 06:10:26;;;;;;;;;;;20.20;62.90;;;;;;6318564;28;19915;-65
2023/10/23 06:13:26;;;;;;;;;;;20.20;62.70;;;;;;6313757;28;20003;-65
2023/10/23 06:16:27;;;;;;;;;;;20.20;62.90;;;;;;6316833;28;19908;-65
2023/10/23 06:19:51;;;;;;;;;;;20.20;62.40;;;;;;6316789;28;20045;-66
2023/10/23 06:22:52;;;;;;;;;;;20.10;62.50;;;;;;6310182;28;19912;-66
2023/10/23 06:25:55;;;;;;;;;;;20.10;62.60;;;;;;6317462;28;20006;-66
2023/10/23 06:28:56;;;;;;;;;;;20.00;62.50;;;;;;6317774;28;19912;-65
2023/10/23 06:31:57;;;;;;;;;;;20.00;62.60;;;;;;6317885;28;19919;-65
2023/10/23 06:34:57;;;;;;;;;;;20.00;62.50;;;;;;6318695;28;19912;-66
2023/10/23 06:37:58;;;;;;;;;;;20.00;62.50;;;;;;6318296;28;19936;-66
2023/10/23 06:41:05;;;;;;;;;;;20.00;62.50;;;;;;6317785;28;19927;-66
2023/10/23 06:44:06;;;;;;;;;;;20.00;62.50;;;;;;6316903;28;19912;-65
2023/10/23 06:47:07;;;;;;;;;;;20.00;62.50;;;;;;6317635;28;19916;-66
2023/10/23 06:50:07;;;;;;;;;;;20.00;62.50;;;;;;6316968;28;20328;-66
2023/10/23 06:53:08;;;;;;;;;;;20.00;62.40;;;;;;6317503;28;19908;-65
2023/10/23 06:56:09;;;;;;;;;;;20.00;62.40;;;;;;6317195;28;19908;-66
2023/10/23 06:59:09;;;;;;;;;;;20.00;62.40;;;;;;6316717;28;19908;-66
2023/10/23 07:02:10;;;;;;;;;;;20.00;62.40;;;;;;6317223;28;19912;-66
2023/10/23 07:05:10;;;;;;;;;;;20.00;62.40;;;;;;6315468;28;19966;-66
2023/10/23 07:08:11;;;;;;;;;;;20.00;62.50;;;;;;6316383;28;20003;-66
2023/10/23 07:11:12;;;;;;;;;;;20.00;62.60;;;;;;6316468;28;20101;-65
2023/10/23 07:14:13;;;;;;;;;;;19.90;62.30;;;;;;6316918;28;20278;-66
2023/10/23 07:17:13;;;;;;;;;;;19.90;62.40;;;;;;6315248;28;20290;-66
2023/10/23 07:20:17;;;;;;;;;;;19.90;62.30;;;;;;6315550;28;19912;-66
2023/10/23 07:23:18;;;;;;;;;;;19.90;62.70;;;;;;6316687;28;19908;-66
2023/10/23 07:26:19;;;;;;;;;;;19.90;62.50;;;;;;6316793;28;19908;-66
2023/10/23 07:29:19;;;;;;;;;;;19.90;62.30;;;;;;6316094;28;19916;-66
2023/10/23 07:32:20;;;;;;;;;;;19.90;62.50;;;;;;6316223;28;20330;-66
2023/10/23 07:35:20;;;;;;;;;;;19.90;62.60;;;;;;6316653;28;19908;-66
2023/10/23 07:38:21;;;;;;;;;;;19.90;62.50;;;;;;6316527;28;20286;-66
2023/10/23 07:41:21;;;;;;;;;;;19.90;62.60;;;;;;6316092;28;19920;-66
2023/10/23 07:44:22;;;;;;;;;;;19.90;62.70;;;;;;6317061;28;20007;-66
2023/10/23 07:47:22;;;;;;;;;;;19.90;62.70;;;;;;6315686;28;20379;-66
2023/10/23 07:50:24;;;;;;;;;;;19.90;62.90;;;;;;6316729;28;20355;-66
2023/10/23 07:53:26;;;;;;;;;;;19.90;62.90;;;;;;6315879;28;20316;-66
2023/10/23 07:56:26;;;;;;;;;;;19.90;62.80;;;;;;6317109;28;19912;-65
2023/10/23 07:59:27;;;;;;;;;;;19.90;62.70;;;;;;6315561;28;19957;-65
2023/10/23 08:02:27;;;;;;;;;;;19.90;63.10;;;;;;6316656;28;19920;-66
2023/10/23 08:05:28;;;;;;;;;;;19.90;62.60;;;;;;6311333;28;19912;-66
2023/10/23 08:08:30;;;;;;;;;;;19.90;62.60;;;;;;6316034;28;20378;-65
2023/10/23 08:11:30;;;;;;;;;;;19.90;62.90;;;;;;6316250;28;19915;-66
2023/10/23 08:14:31;;;;;;;;;;;19.90;62.70;;;;;;6315887;28;19908;-66
2023/10/23 08:17:31;;;;;;;;;;;19.90;63.00;;;;;;6318853;28;19943;-65
2023/10/23 08:20:34;;;;;;;;;;;19.90;63.10;;;;;;6321102;28;19916;-66
2023/10/23 08:23:35;;;;;;;;;;;19.90;62.70;;;;;;6321709;28;19994;-65
2023/10/23 08:26:35;;;;;;;;;;;19.90;62.90;;;;;;6320107;28;19908;-65
2023/10/23 08:29:36;;;;;;;;;;;19.90;62.70;;;;;;6320534;28;20356;-65
2023/10/23 08:32:36;;;;;;;;;;;19.90;62.90;;;;;;6320981;28;19908;-66
2023/10/23 08:35:37;;;;;;;;;;;19.90;62.70;;;;;;6321342;28;19912;-65
2023/10/23 08:38:37;;;;;;;;;;;19.90;62.60;;;;;;6320848;28;19912;-65
2023/10/23 08:41:38;;;;;;;;;;;19.90;62.60;;;;;;6321012;28;19924;-65
2023/10/23 08:44:39;;;;;;;;;;;19.90;62.60;;;;;;6321744;28;20007;-65
2023/10/23 08:47:39;;;;;;;;;;;19.90;63.00;;;;;;6319832;28;20352;-65
2023/10/23 08:50:42;;;;;;;;;;;19.90;62.70;;;;;;6320604;28;20064;-65
2023/10/23 08:53:48;;;;;;;;;;;19.90;62.80;;;;;;6321077;28;19908;-65
2023/10/23 08:57:02;;;;;;;;;;;19.90;62.70;;;;;;6313418;28;19908;-65
2023/10/23 09:00:03;;;;;;;;;;;19.90;62.60;;;;;;6319900;28;19920;-65
2023/10/23 09:03:04;;;;;;;;;;;19.90;62.70;;;;;;6320441;28;19912;-66
2023/10/23 09:06:07;;;;;;;;;;;19.90;62.70;;;;;;6316608;28;20531;-65
2023/10/23 09:09:08;;;;;;;;;;;19.90;62.70;;;;;;6320414;28;19912;-65
2023/10/23 09:12:28;;;;;;;;;;;19.90;62.70;;;;;;6319865;28;19908;-65
2023/10/23 09:15:28;;;;;;;;;;;19.90;62.80;;;;;;6320472;28;19908;-66
2023/10/23 09:18:29;;;;;;;;;;;19.90;62.70;;;;;;6320831;28;19958;-65
2023/10/23 09:21:30;;;;;;;;;;;19.90;63.00;;;;;;6319409;28;20445;-65
2023/10/23 09:24:30;;;;;;;;;;;19.90;62.70;;;;;;6320121;28;19908;-65
2023/10/23 09:27:31;;;;;;;;;;;19.90;62.90;;;;;;6318924;28;19919;-65
2023/10/23 09:30:31;;;;;;;;;;;19.90;62.70;;;;;;6317021;28;20305;-65
2023/10/23 09:33:33;;;;;;;;;;;19.90;62.90;;;;;;6320404;28;19916;-66
2023/10/23 09:36:34;;;;;;;;;;;19.90;62.80;;;;;;6319325;28;19918;-65
2023/10/23 09:39:37;;;;;;;;;;;19.90;63.00;;;;;;6319117;28;19916;-66
2023/10/23 09:42:38;;;;;;;;;;;19.90;63.10;;;;;;6319692;28;19923;-65
2023/10/23 09:45:40;;;;;;;;;;;19.90;62.90;;;;;;6318637;28;19912;-65
2023/10/23 09:48:41;;;;;;;;;;;19.90;62.90;;;;;;6319133;28;19915;-65
2023/10/23 09:51:42;;;;;;;;;;;19.90;63.20;;;;;;6318338;28;19939;-66
2023/10/23 09:54:44;;;;;;;;;;;19.90;63.10;;;;;;6317397;28;19914;-66
2023/10/23 09:57:45;;;;;;;;;;;19.90;63.00;;;;;;6318513;28;19920;-66
2023/10/23 10:00:48;;;;;;;;;;;19.90;63.30;;;;;;6309747;28;19916;-65
2023/10/23 10:03:49;;;;;;;;;;;19.90;63.00;;;;;;6314173;28;19913;-65
2023/10/23 10:06:52;;;;;;;;;;;19.90;63.20;;;;;;6317837;28;20005;-65
2023/10/23 10:09:54;;;;;;;;;;;19.90;63.30;;;;;;6319387;28;19923;-66
2023/10/23 10:12:55;;;;;;;;;;;19.90;63.20;;;;;;6316662;28;19912;-66
2023/10/23 10:15:55;;;;;;;;;;;19.90;63.00;;;;;;6318810;28;20278;-65
2023/10/23 10:18:56;;;;;;;;;;;19.90;63.30;;;;;;6318833;28;19909;-65
2023/10/23 10:22:06;;;;;;;;;;;19.90;63.30;;;;;;6316383;28;19920;-65
2023/10/23 10:25:07;;;;;;;;;;;19.90;63.10;;;;;;6317880;28;19912;-65
2023/10/23 10:28:08;;;;;;;;;;;19.90;63.10;;;;;;6318361;28;19983;-66
2023/10/23 10:31:09;;;;;;;;;;;19.90;63.30;;;;;;6317662;28;19961;-66
2023/10/23 10:34:10;;;;;;;;;;;19.90;62.80;;;;;;6318714;28;19958;-65
2023/10/23 10:37:11;;;;;;;;;;;20.00;62.80;;;;;;6317288;28;20019;-65
2023/10/23 10:40:11;;;;;;;;;;;20.00;62.50;;;;;;6309528;28;19920;-65
2023/10/23 10:43:18;;;;;;;;;;;20.00;62.70;;;;;;6318088;28;19912;-65
2023/10/23 10:46:21;;;;;;;;;;;20.00;63.60;;;;;;6317750;28;19908;-65
2023/10/23 10:49:21;;;;;;;;;;;20.00;62.50;;;;;;6317754;28;19951;-63
2023/10/23 10:52:30;;;;;;;;;;;20.10;62.90;;;;;;6319639;28;20171;-63
2023/10/23 10:55:31;;;;;;;;;;;20.20;62.50;;;;;;6316816;28;20299;-63
2023/10/23 10:58:32;;;;;;;;;;;20.10;62.50;;;;;;6318009;28;19908;-63
2023/10/23 11:01:32;;;;;;;;;;;20.10;62.70;;;;;;6310708;28;19923;-63
2023/10/23 11:04:34;;;;;;;;;;;20.00;62.60;;;;;;6312501;28;19944;-63
2023/10/23 11:07:34;;;;;;;;;;;20.00;62.90;;;;;;6316892;28;20006;-63
2023/10/23 11:10:35;;;;;;;;;;;20.00;63.10;;;;;;6316812;28;20513;-63
2023/10/23 11:13:35;;;;;;;;;;;20.00;63.20;;;;;;6309396;28;20334;-63
2023/10/23 11:16:36;;;;;;;;;;;20.00;63.30;;;;;;6315534;28;19912;-63
2023/10/23 11:19:37;;;;;;;;;;;20.00;63.30;;;;;;6317223;28;19908;-63
2023/10/23 11:22:38;;;;;;;;;;;20.00;63.40;;;;;;6317232;28;19916;-62
2023/10/23 11:25:38;;;;;;;;;;;20.00;63.50;;;;;;6316385;28;20406;-63
2023/10/23 11:28:39;;;;;;;;;;;19.90;63.40;;;;;;6316900;28;19908;-64
2023/10/23 11:31:40;;;;;;;;;;;20.00;63.40;;;;;;6316809;28;19912;-63
2023/10/23 11:34:41;;;;;;;;;;;20.00;62.80;;;;;;6317123;28;19935;-63
2023/10/23 11:37:42;;;;;;;;;;;20.10;63.10;;;;;;6316899;28;19961;-64
2023/10/23 11:40:43;;;;;;;;;;;20.10;63.20;;;;;;6316247;28;19927;-63
2023/10/23 11:43:43;;;;;;;;;;;20.10;63.00;;;;;;6315297;28;19908;-64
2023/10/23 11:46:44;;;;;;;;;;;20.10;62.90;;;;;;6308145;28;19923;-64
2023/10/23 11:49:48;;;;;;;;;;;20.20;62.80;;;;;;6316654;28;19915;-63
2023/10/23 11:52:49;;;;;;;;;;;20.10;63.30;;;;;;6310477;28;20277;-64
2023/10/23 11:55:50;;;;;;;;;;;20.10;63.30;;;;;;6316512;28;19908;-63
2023/10/23 11:58:50;;;;;;;;;;;20.20;62.90;;;;;;6316534;28;19920;-62
2023/10/23 12:01:52;;;;;;;;;;;20.20;62.70;;;;;;6315844;28;19934;-64
2023/10/23 12:04:53;;;;;;;;;;;20.20;62.80;;;;;;6315559;28;19967;-63
2023/10/23 12:07:54;;;;;;;;;;;20.30;64.20;;;;;;6316424;28;19912;-64
2023/10/23 12:10:55;;;;;;;;;;;20.30;64.00;;;;;;6317174;28;19908;-64
2023/10/23 12:13:57;;;;;;;;;;;20.30;64.30;;;;;;6316266;28;20162;-64
2023/10/23 12:16:57;;;;;;;;;;;20.40;64.20;;;;;;6316342;28;19908;-64
2023/10/23 12:19:58;;;;;;;;;;;20.40;64.70;;;;;;6315780;28;19908;-63
2023/10/23 12:22:58;;;;;;;;;;;20.40;65.30;;;;;;6316420;28;20074;-63
2023/10/23 12:25:59;;;;;;;;;;;20.40;64.80;;;;;;6316311;28;19962;-64
2023/10/23 12:28:59;;;;;;;;;;;20.40;65.10;;;;;;6317119;28;19912;-62
2023/10/23 12:32:00;;;;;;;;;;;20.40;65.20;;;;;;6316454;28;20337;-64
2023/10/23 12:35:03;;;;;;;;;;;20.40;65.20;;;;;;6316306;28;20286;-63
2023/10/23 12:38:04;;;;;;;;;;;20.40;64.90;;;;;;6315848;28;19916;-64
2023/10/23 12:41:05;;;;;;;;;;;20.40;64.50;;;;;;6315335;28;19977;-65
2023/10/23 12:44:06;;;;;;;;;;;20.40;64.20;;;;;;6315989;28;20444;-62
2023/10/23 12:47:06;;;;;;;;;;;20.40;65.10;;;;;;6315819;28;19973;-64
2023/10/23 12:50:07;;;;;;;;;;;20.40;65.60;;;;;;6315403;28;19916;-64
2023/10/23 12:53:08;;;;;;;;;;;20.40;65.30;;;;;;6315580;28;19957;-63
2023/10/23 12:56:08;;;;;;;;;;;20.40;65.80;;;;;;6315717;28;19999;-64
2023/10/23 12:59:09;;;;;;;;;;;20.40;65.40;;;;;;6313933;28;19915;-63
2023/10/23 13:02:10;;;;;;;;;;;20.40;64.60;;;;;;6315083;28;19912;-63
2023/10/23 13:05:10;;;;;;;;;;;20.40;65.70;;;;;;6313745;28;20052;-64
2023/10/23 13:08:11;;;;;;;;;;;20.40;65.60;;;;;;6319749;28;19908;-62
2023/10/23 13:11:12;;;;;;;;;;;20.40;65.40;;;;;;6318033;28;19999;-63
2023/10/23 13:14:13;;;;;;;;;;;20.40;65.70;;;;;;6319686;28;19912;-64
2023/10/23 13:17:13;;;;;;;;;;;20.40;65.50;;;;;;6320345;28;19912;-64
2023/10/23 13:20:14;;;;;;;;;;;20.40;65.70;;;;;;6319367;28;19916;-63
2023/10/23 13:23:15;;;;;;;;;;;20.40;65.20;;;;;;6319647;28;19911;-63
2023/10/23 13:26:17;;;;;;;;;;;20.30;65.00;;;;;;6319724;28;19912;-64
2023/10/23 13:29:17;;;;;;;;;;;20.30;65.00;;;;;;6319702;28;19908;-64
2023/10/23 13:32:19;;;;;;;;;;;20.30;65.40;;;;;;6319472;28;19908;-62
2023/10/23 13:35:20;;;;;;;;;;;20.40;65.40;;;;;;6319145;28;20321;-62
2023/10/23 13:38:20;;;;;;;;;;;20.40;65.70;;;;;;6320685;28;19950;-62
2023/10/23 13:41:21;;;;;;;;;;;20.40;65.40;;;;;;6318988;28;19924;-62
2023/10/23 13:44:22;;;;;;;;;;;20.40;65.40;;;;;;6319391;28;19917;-62
2023/10/23 13:47:22;;;;;;;;;;;20.40;66.50;;;;;;6313612;28;19965;-64
2023/10/23 13:50:23;;;;;;;;;;;20.60;65.10;;;;;;6320593;28;19916;-63
2023/10/23 13:53:23;;;;;;;;;;;20.60;64.60;;;;;;6317546;28;20286;-63
2023/10/23 13:56:24;;;;;;;;;;;20.50;65.10;;;;;;6317816;28;19916;-61
2023/10/23 13:59:25;;;;;;;;;;;20.50;65.20;;;;;;6317043;28;19951;-63
2023/10/23 14:02:26;;;;;;;;;;;20.40;65.30;;;;;;6317429;28;20374;-62
2023/10/23 14:05:26;;;;;;;;;;;20.40;65.40;;;;;;6316899;28;19915;-63
2023/10/23 14:08:27;;;;;;;;;;;20.40;65.00;;;;;;6316853;28;20310;-62
2023/10/23 14:11:30;;;;;;;;;;;20.30;65.00;;;;;;6316161;28;20354;-61
2023/10/23 14:14:30;;;;;;;;;;;20.30;65.20;;;;;;6317964;28;19914;-63
2023/10/23 14:17:32;;;;;;;;;;;20.20;64.90;;;;;;6318429;28;20310;-62
2023/10/23 14:20:32;;;;;;;;;;;20.20;65.00;;;;;;6317665;28;19919;-61
2023/10/23 14:23:33;;;;;;;;;;;20.20;65.20;;;;;;6317137;28;19916;-62
2023/10/23 14:26:33;;;;;;;;;;;20.20;65.20;;;;;;6317998;28;20290;-62
2023/10/23 14:29:34;;;;;;;;;;;20.20;65.10;;;;;;6317184;28;19913;-62
2023/10/23 14:32:35;;;;;;;;;;;20.20;65.10;;;;;;6318657;28;19983;-62
2023/10/23 14:35:36;;;;;;;;;;;20.10;65.20;;;;;;6318195;28;19908;-62
2023/10/23 14:38:36;;;;;;;;;;;20.10;65.10;;;;;;6318357;28;19915;-62
2023/10/23 14:41:37;;;;;;;;;;;20.10;65.10;;;;;;6317981;28;19920;-63
2023/10/23 14:44:37;;;;;;;;;;;20.10;65.20;;;;;;6318367;28;19916;-63
2023/10/23 14:47:38;;;;;;;;;;;20.10;65.20;;;;;;6317883;28;19908;-62
2023/10/23 14:50:39;;;;;;;;;;;20.10;65.20;;;;;;6317748;28;19995;-62
2023/10/23 14:53:39;;;;;;;;;;;20.10;65.20;;;;;;6317708;28;19915;-62
2023/10/23 14:56:40;;;;;;;;;;;20.10;65.20;;;;;;6316363;28;19947;-61
2023/10/23 14:59:41;;;;;;;;;;;20.10;65.10;;;;;;6318037;28;20204;-62
2023/10/23 15:02:42;;;;;;;;;;;20.10;65.20;;;;;;6317533;28;19955;-62
2023/10/23 15:05:42;;;;;;;;;;;20.10;65.20;;;;;;6317227;28;19918;-62
2023/10/23 15:08:45;;;;;;;;;;;20.10;65.10;;;;;;6317550;28;19912;-62
2023/10/23 15:11:45;;;;;;;;;;;20.10;65.10;;;;;;6317245;28;19916;-62
2023/10/23 15:14:46;;;;;;;;;;;20.10;65.10;;;;;;6316356;28;20256;-62
2023/10/23 15:17:46;;;;;;;;;;;20.10;65.10;;;;;;6315249;28;19951;-62
2023/10/23 15:20:47;;;;;;;;;;;20.10;65.10;;;;;;6308834;28;19924;-62
2023/10/23 15:23:48;;;;;;;;;;;20.10;65.10;;;;;;6317468;28;19912;-62
2023/10/23 15:26:48;;;;;;;;;;;20.10;64.80;;;;;;6316172;28;20286;-62
2023/10/23 15:29:49;;;;;;;;;;;20.10;64.60;;;;;;6317011;28;20386;-62
2023/10/23 15:32:49;;;;;;;;;;;20.10;64.70;;;;;;6317094;28;19908;-62
2023/10/23 15:35:54;;;;;;;;;;;20.10;64.50;;;;;;6316772;28;20411;-62
2023/10/23 15:38:54;;;;;;;;;;;20.10;64.60;;;;;;6315493;28;19938;-62
2023/10/23 15:41:56;;;;;;;;;;;20.10;64.70;;;;;;6316548;28;19920;-62
2023/10/23 15:44:57;;;;;;;;;;;20.10;64.60;;;;;;6317296;28;19918;-62
2023/10/23 15:47:59;;;;;;;;;;;20.10;64.40;;;;;;6316907;28;19908;-62
2023/10/23 15:51:00;;;;;;;;;;;20.10;64.50;;;;;;6316861;28;19912;-62
2023/10/23 15:54:00;;;;;;;;;;;20.10;64.40;;;;;;6316573;28;19908;-62
2023/10/23 15:57:01;;;;;;;;;;;20.10;64.60;;;;;;6317197;28;19912;-62
2023/10/23 16:00:01;;;;;;;;;;;20.10;65.30;;;;;;6316638;28;19914;-62
2023/10/23 16:03:04;;;;;;;;;;;20.10;64.40;;;;;;6316980;28;20003;-62
2023/10/23 16:06:08;;;;;;;;;;;20.10;64.50;;;;;;6316475;28;19934;-62
2023/10/23 16:09:08;;;;;;;;;;;20.10;64.40;;;;;;6315539;28;20375;-62
2023/10/23 16:12:09;;;;;;;;;;;20.10;64.50;;;;;;6317082;28;19909;-62
2023/10/23 16:15:10;;;;;;;;;;;20.10;64.70;;;;;;6314793;28;19912;-62
2023/10/23 16:18:11;;;;;;;;;;;20.10;64.70;;;;;;6313935;28;19915;-62
2023/10/23 16:21:12;;;;;;;;;;;20.10;64.80;;;;;;6314036;28;19931;-63
2023/10/23 16:24:13;;;;;;;;;;;20.10;65.00;;;;;;6314807;28;19985;-62
2023/10/23 16:27:14;;;;;;;;;;;20.10;64.50;;;;;;6313992;28;19959;-62
2023/10/23 16:30:15;;;;;;;;;;;20.10;64.70;;;;;;6314215;28;19919;-62
2023/10/23 16:33:15;;;;;;;;;;;20.10;64.60;;;;;;6314141;28;19908;-62
2023/10/23 16:36:16;;;;;;;;;;;20.10;64.60;;;;;;6314349;28;19908;-63
2023/10/23 16:39:17;;;;;;;;;;;20.10;64.60;;;;;;6315017;28;19915;-62
2023/10/23 16:42:17;;;;;;;;;;;20.10;64.60;;;;;;6316678;28;19943;-62
2023/10/23 16:45:18;;;;;;;;;;;20.10;64.40;;;;;;6318210;28;20294;-62
2023/10/23 16:48:18;;;;;;;;;;;20.10;64.50;;;;;;6318122;28;20249;-62
2023/10/23 16:51:19;;;;;;;;;;;20.10;64.50;;;;;;6317727;28;19908;-62
2023/10/23 16:54:19;;;;;;;;;;;20.10;64.40;;;;;;6318238;28;19948;-62
2023/10/23 16:57:20;;;;;;;;;;;20.10;64.50;;;;;;6318545;28;19908;-62
2023/10/23 17:00:20;;;;;;;;;;;20.10;64.60;;;;;;6317582;28;20332;-62
2023/10/23 17:03:22;;;;;;;;;;;20.10;64.50;;;;;;6311765;28;20125;-62
2023/10/23 17:06:22;;;;;;;;;;;20.10;64.60;;;;;;6318069;28;20290;-62
2023/10/23 17:09:23;;;;;;;;;;;20.10;64.50;;;;;;6317348;28;20302;-62
2023/10/23 17:12:23;;;;;;;;;;;20.10;64.60;;;;;;6316616;28;20234;-62
2023/10/23 17:15:24;;;;;;;;;;;20.10;64.50;;;;;;6317774;28;19935;-62
2023/10/23 17:18:24;;;;;;;;;;;20.10;64.40;;;;;;6318361;28;20326;-62
2023/10/23 17:21:25;;;;;;;;;;;20.10;64.40;;;;;;6317882;28;20016;-62
2023/10/23 17:24:25;;;;;;;;;;;20.10;64.30;;;;;;6318754;28;20003;-63
2023/10/23 17:27:27;;;;;;;;;;;20.10;64.30;;;;;;6318001;28;19933;-62
2023/10/23 17:30:28;;;;;;;;;;;20.10;64.30;;;;;;6317595;28;19915;-62
2023/10/23 17:33:30;;;;;;;;;;;20.10;64.30;;;;;;6317434;28;19993;-62
2023/10/23 17:36:32;;;;;;;;;;;20.10;64.40;;;;;;6317361;28;19969;-62